createdAt,value
2022-11-29T00:01:38.339Z,60.10
2022-11-29T00:04:06.564Z,61.80
2022-11-29T00:06:36.457Z,60.57
2022-11-29T00:09:07.315Z,60.47
2022-11-29T00:11:54.092Z,59.77
2022-11-29T00:14:23.054Z,61.77
2022-11-29T00:16:51.876Z,59.60
2022-11-29T00:19:20.394Z,63.40
2022-11-29T00:21:49.678Z,61.40
2022-11-29T00:24:17.718Z,60.40
2022-11-29T00:26:45.820Z,62.20
2022-11-29T00:29:14.337Z,59.53
2022-11-29T00:31:42.712Z,60.27
2022-11-29T00:34:12.677Z,60.83
2022-11-29T00:36:40.778Z,62.07
2022-11-29T00:39:12.057Z,60.83
2022-11-29T00:41:40.232Z,60.63
2022-11-29T00:44:08.315Z,58.50
2022-11-29T00:46:36.222Z,58.83
2022-11-29T00:49:04.704Z,60.20
2022-11-29T00:51:32.745Z,61.73
2022-11-29T00:54:00.640Z,62.73
2022-11-29T00:56:29.917Z,63.37
2022-11-29T00:58:57.934Z,62.93
2022-11-29T01:01:25.919Z,61.80
2022-11-29T01:03:53.818Z,63.33
2022-11-29T01:06:21.723Z,63.97
2022-11-29T01:08:50.769Z,64.83
2022-11-29T01:11:25.636Z,63.40
2022-11-29T01:13:57.874Z,64.40
2022-11-29T01:16:26.417Z,62.77
2022-11-29T01:18:54.437Z,63.87
2022-11-29T01:21:24.556Z,64.00
2022-11-29T01:23:54.407Z,63.73
2022-11-29T01:29:30.411Z,65.03
2022-11-29T01:31:58.409Z,65.37
2022-11-29T01:34:26.363Z,65.30
2022-11-29T01:36:54.279Z,69.10
2022-11-29T01:39:22.317Z,67.63
2022-11-29T01:41:50.388Z,65.37
2022-11-29T01:44:55.848Z,69.37
2022-11-29T01:47:25.130Z,66.80
2022-11-29T01:49:53.176Z,66.40
2022-11-29T01:52:23.690Z,66.53
2022-11-29T01:54:56.660Z,63.77
2022-11-29T01:57:25.215Z,65.50
2022-11-29T01:59:59.257Z,66.40
2022-11-29T02:02:36.631Z,66.20
2022-11-29T02:05:06.139Z,65.97
2022-11-29T02:07:34.116Z,65.73
2022-11-29T02:10:03.171Z,62.60
2022-11-29T02:12:38.112Z,61.63
2022-11-29T02:15:24.262Z,66.70
2022-11-29T02:18:04.501Z,66.50
2022-11-29T02:21:01.025Z,68.00
2022-11-29T02:24:19.628Z,65.70
2022-11-29T02:27:17.122Z,67.40
2022-11-29T02:30:21.906Z,69.10
2022-11-29T02:33:10.176Z,69.73
2022-11-29T02:35:52.386Z,68.30
2022-11-29T02:38:31.706Z,67.83
2022-11-29T02:41:20.360Z,70.90
2022-11-29T02:44:08.851Z,66.87
2022-11-29T02:47:01.016Z,67.00
2022-11-29T02:49:43.531Z,65.27
2022-11-29T02:52:18.253Z,67.10
2022-11-29T02:54:52.227Z,69.07
2022-11-29T02:57:26.270Z,67.63
2022-11-29T03:00:01.306Z,76.70
2022-11-29T03:02:36.240Z,70.43
2022-11-29T03:05:15.152Z,71.87
2022-11-29T03:07:54.870Z,71.47
2022-11-29T03:10:31.699Z,98.50
2022-11-29T03:13:01.076Z,73.90
2022-11-29T03:15:32.328Z,71.17
2022-11-29T03:18:16.789Z,82.97
2022-11-29T03:21:04.775Z,76.90
2022-11-29T03:23:38.115Z,73.97
2022-11-29T03:26:09.780Z,78.20
2022-11-29T03:28:42.499Z,78.73
2022-11-29T03:31:17.041Z,99.67
2022-11-29T03:33:54.876Z,84.93
2022-11-29T03:36:34.759Z,77.60
2022-11-29T03:39:06.836Z,81.03
2022-11-29T03:41:42.705Z,86.60
2022-11-29T03:44:16.072Z,122.17
2022-11-29T03:46:49.203Z,95.43
2022-11-29T03:49:22.722Z,68.67
2022-11-29T03:52:02.268Z,84.00
2022-11-29T03:54:39.148Z,71.47
2022-11-29T03:57:08.059Z,64.03
2022-11-29T03:59:52.442Z,68.87
2022-11-29T04:02:57.735Z,65.23
2022-11-29T04:05:49.013Z,77.03
2022-11-29T04:08:54.122Z,63.70
2022-11-29T04:11:55.863Z,65.37
2022-11-29T04:14:44.201Z,81.53
2022-11-29T04:17:55.993Z,99.90
2022-11-29T04:20:57.845Z,113.00
2022-11-29T04:23:49.177Z,63.73
2022-11-29T04:26:45.891Z,56.13
2022-11-29T04:29:25.216Z,56.07
2022-11-29T04:32:11.515Z,59.50
2022-11-29T04:35:30.561Z,55.83
2022-11-29T04:38:30.939Z,69.97
2022-11-29T04:41:25.328Z,117.40
2022-11-29T04:44:04.931Z,55.90
2022-11-29T04:46:52.499Z,64.10
2022-11-29T04:49:55.349Z,72.80
2022-11-29T04:52:37.984Z,84.80
2022-11-29T04:55:26.363Z,69.53
2022-11-29T04:58:05.559Z,60.77
2022-11-29T05:00:40.836Z,55.30
2022-11-29T05:03:15.586Z,56.83
2022-11-29T05:05:52.001Z,64.03
2022-11-29T05:08:30.515Z,134.73
2022-11-29T05:11:06.965Z,93.20
2022-11-29T05:13:49.952Z,74.00
2022-11-29T05:16:44.056Z,60.27
2022-11-29T05:19:35.618Z,56.20
2022-11-29T05:22:14.336Z,54.30
2022-11-29T05:24:53.109Z,54.63
2022-11-29T05:27:28.250Z,51.30
2022-11-29T05:30:03.699Z,82.73
2022-11-29T05:32:39.366Z,106.20
2022-11-29T05:35:41.375Z,58.13
2022-11-29T05:38:22.188Z,50.67
2022-11-29T05:41:03.238Z,50.70
2022-11-29T05:43:48.365Z,52.37
2022-11-29T05:46:23.804Z,50.00
2022-11-29T05:49:01.902Z,54.23
2022-11-29T05:51:41.197Z,103.80
2022-11-29T05:54:19.425Z,59.87
2022-11-29T05:56:54.993Z,72.90
2022-11-29T05:59:28.316Z,90.57
2022-11-29T06:02:06.465Z,49.30
2022-11-29T06:04:52.661Z,49.57
2022-11-29T06:07:27.223Z,57.43
2022-11-29T06:10:02.495Z,52.17
2022-11-29T06:12:35.015Z,53.30
2022-11-29T06:15:30.161Z,65.60
2022-11-29T06:18:19.257Z,55.53
2022-11-29T06:21:03.568Z,54.33
2022-11-29T06:23:49.481Z,49.80
2022-11-29T06:26:37.660Z,50.57
2022-11-29T06:29:22.164Z,64.00
2022-11-29T06:31:56.806Z,79.97
2022-11-29T06:34:32.566Z,50.13
2022-11-29T06:37:06.440Z,50.20
2022-11-29T06:39:34.877Z,62.87
2022-11-29T06:42:02.864Z,50.97
2022-11-29T06:44:31.267Z,46.27
2022-11-29T06:47:06.536Z,73.23
2022-11-29T06:49:44.694Z,71.30
2022-11-29T06:52:22.359Z,46.67
2022-11-29T06:55:04.436Z,47.70
2022-11-29T06:57:43.892Z,50.23
2022-11-29T07:00:17.507Z,51.00
2022-11-29T07:03:15.858Z,46.40
2022-11-29T07:05:46.586Z,47.33
2022-11-29T07:08:18.782Z,60.30
2022-11-29T07:10:49.806Z,44.40
2022-11-29T07:13:19.425Z,70.23
2022-11-29T07:15:56.809Z,55.93
2022-11-29T07:18:32.425Z,49.83
2022-11-29T07:21:09.727Z,46.90
2022-11-29T07:23:45.307Z,47.93
2022-11-29T07:26:22.632Z,46.07
2022-11-29T07:29:05.547Z,47.43
2022-11-29T07:31:46.893Z,46.80
2022-11-29T07:34:22.632Z,46.63
2022-11-29T07:37:00.333Z,46.87
2022-11-29T07:39:41.755Z,48.07
2022-11-29T07:42:17.663Z,47.67
2022-11-29T07:44:57.028Z,46.80
2022-11-29T07:47:25.138Z,44.67
2022-11-29T07:49:53.084Z,46.83
2022-11-29T07:52:22.511Z,45.90
2022-11-29T07:54:50.478Z,46.40
2022-11-29T07:57:18.495Z,45.73
2022-11-29T07:59:46.805Z,46.10
2022-11-29T08:02:14.940Z,44.40
2022-11-29T08:04:44.350Z,50.93
2022-11-29T08:07:12.834Z,45.57
2022-11-29T08:09:42.256Z,43.63
2022-11-29T08:12:10.241Z,43.30
2022-11-29T08:14:38.137Z,41.70
2022-11-29T08:17:09.194Z,42.67
2022-11-29T08:19:38.270Z,45.83
2022-11-29T08:22:06.194Z,45.80
2022-11-29T08:24:34.078Z,45.57
2022-11-29T08:27:03.328Z,44.83
2022-11-29T08:29:31.338Z,48.20
2022-11-29T08:31:59.400Z,49.30
2022-11-29T08:34:27.681Z,45.93
2022-11-29T08:36:56.709Z,48.53
2022-11-29T08:39:25.064Z,44.90
2022-11-29T08:41:53.129Z,46.70
2022-11-29T08:44:22.427Z,43.77
2022-11-29T08:47:08.036Z,46.90
2022-11-29T08:49:36.000Z,42.77
2022-11-29T08:52:21.246Z,44.10
2022-11-29T08:54:49.178Z,47.40
2022-11-29T08:57:39.112Z,43.87
2022-11-29T09:00:08.182Z,45.20
2022-11-29T09:02:37.475Z,44.80
2022-11-29T09:05:06.138Z,48.13
2022-11-29T09:07:34.344Z,65.87
2022-11-29T09:10:05.049Z,45.50
2022-11-29T09:12:33.552Z,44.33
2022-11-29T09:15:01.543Z,44.43
2022-11-29T09:17:31.032Z,44.10
2022-11-29T09:19:58.954Z,55.77
2022-11-29T09:22:26.881Z,49.40
2022-11-29T09:24:54.875Z,44.63
2022-11-29T09:27:22.842Z,45.33
2022-11-29T09:29:50.733Z,45.17
2022-11-29T09:32:18.664Z,45.03
2022-11-29T09:34:48.333Z,49.20
2022-11-29T09:37:16.372Z,66.07
2022-11-29T09:39:44.403Z,52.53
2022-11-29T09:42:28.470Z,53.47
2022-11-29T09:45:06.938Z,44.70
2022-11-29T09:48:07.916Z,41.60
2022-11-29T09:50:43.095Z,50.70
2022-11-29T09:53:29.545Z,52.27
2022-11-29T09:56:13.354Z,43.47
2022-11-29T09:58:48.224Z,41.77
2022-11-29T10:01:21.738Z,41.70
2022-11-29T10:03:53.919Z,43.17
2022-11-29T10:06:26.777Z,51.23
2022-11-29T10:09:00.591Z,44.27
2022-11-29T10:11:34.216Z,43.93
2022-11-29T10:14:11.062Z,53.70
2022-11-29T10:16:45.640Z,44.47
2022-11-29T10:19:22.292Z,46.80
2022-11-29T10:22:03.571Z,47.90
2022-11-29T10:24:33.985Z,45.57
2022-11-29T10:27:02.055Z,46.13
2022-11-29T10:29:30.047Z,45.33
2022-11-29T10:31:59.422Z,44.20
2022-11-29T10:34:30.582Z,44.07
2022-11-29T10:37:02.691Z,43.77
2022-11-29T10:39:39.591Z,44.03
2022-11-29T10:42:36.181Z,42.07
2022-11-29T10:45:06.216Z,40.57
2022-11-29T10:47:34.330Z,41.80
2022-11-29T10:50:02.223Z,57.20
2022-11-29T10:52:31.508Z,53.30
2022-11-29T10:55:01.112Z,52.60
2022-11-29T10:57:29.042Z,42.23
2022-11-29T11:00:02.375Z,43.30
2022-11-29T11:02:31.440Z,46.33
2022-11-29T11:05:00.802Z,43.80
2022-11-29T11:07:33.319Z,47.60
2022-11-29T11:10:02.689Z,41.27
2022-11-29T11:12:32.584Z,44.77
2022-11-29T11:15:27.660Z,44.43
2022-11-29T11:17:58.192Z,45.53
2022-11-29T11:20:28.526Z,43.83
2022-11-29T11:23:00.928Z,41.10
2022-11-29T11:25:31.616Z,43.93
2022-11-29T11:28:13.597Z,55.60
2022-11-29T11:30:41.584Z,39.87
2022-11-29T11:33:18.377Z,43.87
2022-11-29T11:36:01.121Z,42.50
2022-11-29T11:38:30.816Z,40.90
2022-11-29T11:41:05.828Z,40.53
2022-11-29T11:43:35.484Z,46.63
2022-11-29T11:46:03.563Z,41.07
2022-11-29T11:48:32.490Z,38.40
2022-11-29T11:51:03.216Z,38.87
2022-11-29T11:53:36.716Z,39.67
2022-11-29T11:56:07.557Z,41.33
2022-11-29T11:58:38.823Z,39.60
2022-11-29T12:01:16.769Z,39.13
2022-11-29T12:04:01.705Z,39.77
2022-11-29T12:06:42.109Z,38.77
2022-11-29T12:09:24.295Z,38.93
2022-11-29T12:12:01.350Z,39.60
2022-11-29T12:14:37.777Z,40.43
2022-11-29T12:17:20.207Z,43.77
2022-11-29T12:20:00.327Z,43.47
2022-11-29T12:22:33.919Z,42.57
2022-11-29T12:25:08.484Z,42.70
2022-11-29T12:27:36.397Z,42.47
2022-11-29T12:30:12.690Z,41.53
2022-11-29T12:32:53.986Z,42.40
2022-11-29T12:35:39.461Z,39.97
2022-11-29T12:38:18.900Z,40.20
2022-11-29T12:40:57.187Z,41.20
2022-11-29T12:43:35.207Z,41.77
2022-11-29T12:46:12.819Z,43.03
2022-11-29T12:48:50.895Z,43.40
2022-11-29T12:51:28.855Z,40.73
2022-11-29T12:54:16.407Z,41.83
2022-11-29T12:56:55.559Z,40.60
2022-11-29T12:59:38.433Z,40.13
2022-11-29T13:02:24.520Z,43.23
2022-11-29T13:05:02.764Z,40.77
2022-11-29T13:07:40.981Z,42.43
2022-11-29T13:10:30.926Z,43.77
2022-11-29T13:13:09.306Z,43.67
2022-11-29T13:15:44.371Z,42.90
2022-11-29T13:18:20.804Z,42.47
2022-11-29T13:21:02.384Z,46.83
2022-11-29T13:23:46.028Z,45.50
2022-11-29T13:26:28.221Z,48.90
2022-11-29T13:28:59.245Z,46.67
2022-11-29T13:31:27.592Z,48.23
2022-11-29T13:34:02.204Z,46.90
2022-11-29T13:36:39.070Z,62.00
2022-11-29T13:39:17.162Z,46.90
2022-11-29T13:41:51.954Z,47.57
2022-11-29T13:44:32.107Z,47.07
2022-11-29T13:47:06.753Z,53.47
2022-11-29T13:49:54.524Z,46.03
2022-11-29T13:52:41.250Z,48.43
2022-11-29T13:55:29.237Z,80.20
2022-11-29T13:58:20.173Z,66.70
2022-11-29T14:00:53.198Z,50.77
2022-11-29T14:03:30.217Z,57.77
2022-11-29T14:06:11.421Z,50.37
2022-11-29T14:11:39.024Z,57.50
2022-11-29T14:14:11.110Z,82.73
2022-11-29T14:16:47.553Z,65.07
2022-11-29T14:19:33.138Z,52.53
2022-11-29T14:22:28.810Z,69.23
2022-11-29T14:25:21.688Z,63.90
2022-11-29T14:28:01.267Z,59.43
2022-11-29T14:30:57.166Z,66.43
2022-11-29T14:33:58.602Z,62.40
2022-11-29T14:36:43.202Z,61.33
2022-11-29T14:39:31.288Z,118.10
2022-11-29T14:42:14.681Z,58.60
2022-11-29T14:44:49.601Z,60.43
2022-11-29T14:47:27.096Z,70.37
2022-11-29T14:49:58.561Z,86.07
2022-11-29T14:52:30.583Z,60.50
2022-11-29T14:55:02.051Z,86.70
2022-11-29T14:58:14.635Z,58.87
2022-11-29T15:00:54.164Z,67.07
2022-11-29T15:03:29.500Z,87.83
2022-11-29T15:06:02.134Z,88.13
2022-11-29T15:08:34.919Z,58.43
2022-11-29T15:11:08.093Z,60.13
2022-11-29T15:13:38.017Z,67.90
2022-11-29T15:16:29.998Z,74.47
2022-11-29T15:19:40.785Z,86.13
2022-11-29T15:22:16.764Z,118.63
2022-11-29T15:24:52.666Z,67.63
2022-11-29T15:27:21.369Z,88.40
2022-11-29T15:29:49.429Z,117.20
2022-11-29T15:32:24.048Z,78.03
2022-11-29T15:34:53.850Z,88.87
2022-11-29T15:37:42.786Z,83.97
2022-11-29T15:40:14.429Z,112.63
2022-11-29T15:42:44.763Z,77.80
2022-11-29T15:45:34.033Z,115.00
2022-11-29T15:48:19.916Z,109.13
2022-11-29T15:50:59.404Z,79.30
2022-11-29T15:53:33.313Z,96.53
2022-11-29T15:56:04.505Z,74.13
2022-11-29T15:58:35.039Z,101.87
2022-11-29T16:01:04.003Z,81.33
2022-11-29T16:03:35.831Z,95.70
2022-11-29T16:06:08.650Z,104.70
2022-11-29T16:08:42.630Z,127.03
2022-11-29T16:11:17.060Z,77.93
2022-11-29T16:14:02.669Z,81.30
2022-11-29T16:16:35.572Z,94.47
2022-11-29T16:19:17.380Z,73.83
2022-11-29T16:21:46.020Z,73.77
2022-11-29T16:24:21.900Z,70.23
2022-11-29T16:26:51.838Z,76.27
2022-11-29T16:29:24.680Z,76.10
2022-11-29T16:31:53.493Z,109.37
2022-11-29T16:34:27.091Z,72.10
2022-11-29T16:37:06.612Z,104.87
2022-11-29T16:39:38.605Z,83.20
2022-11-29T16:42:19.418Z,73.90
2022-11-29T16:45:23.850Z,78.50
2022-11-29T16:47:58.136Z,121.30
2022-11-29T16:50:27.905Z,74.93
2022-11-29T16:52:57.056Z,77.77
2022-11-29T16:55:26.626Z,69.60
2022-11-29T16:57:54.619Z,118.07
2022-11-29T17:00:29.687Z,75.30
2022-11-29T17:02:57.790Z,117.73
2022-11-29T17:05:26.137Z,73.30
2022-11-29T17:07:54.283Z,89.83
2022-11-29T17:10:25.626Z,70.13
2022-11-29T17:12:55.009Z,75.60
2022-11-29T17:15:22.893Z,87.50
2022-11-29T17:17:50.812Z,78.23
2022-11-29T17:20:18.784Z,90.93
2022-11-29T17:22:46.771Z,101.17
2022-11-29T17:25:14.713Z,81.13
2022-11-29T17:27:42.596Z,79.87
2022-11-29T17:30:13.090Z,71.23
2022-11-29T17:32:41.080Z,88.00
2022-11-29T17:35:09.518Z,73.40
2022-11-29T17:37:37.506Z,118.87
2022-11-29T17:40:06.137Z,84.73
2022-11-29T17:42:34.082Z,89.73
2022-11-29T17:45:02.065Z,86.80
2022-11-29T17:47:31.451Z,79.27
2022-11-29T17:49:59.408Z,71.63
2022-11-29T17:52:27.320Z,77.83
2022-11-29T17:54:55.243Z,83.20
2022-11-29T17:57:23.322Z,75.77
2022-11-29T17:59:51.316Z,93.37
2022-11-29T18:02:19.278Z,92.60
2022-11-29T18:04:48.656Z,144.47
2022-11-29T18:07:17.402Z,83.60
2022-11-29T18:09:46.954Z,89.43
2022-11-29T18:12:15.067Z,89.50
2022-11-29T18:14:43.074Z,81.70
2022-11-29T18:17:11.087Z,78.47
2022-11-29T18:19:39.063Z,120.10
2022-11-29T18:22:08.463Z,69.93
2022-11-29T18:24:36.460Z,75.00
2022-11-29T18:27:04.468Z,102.83
2022-11-29T18:29:45.672Z,126.03
2022-11-29T18:32:13.654Z,73.37
2022-11-29T18:34:41.545Z,87.17
2022-11-29T18:37:16.187Z,73.10
2022-11-29T18:39:48.649Z,104.27
2022-11-29T18:42:16.582Z,118.70
2022-11-29T18:44:44.904Z,112.67
2022-11-29T18:47:13.083Z,103.70
2022-11-29T18:49:41.204Z,130.33
2022-11-29T18:52:11.465Z,117.40
2022-11-29T18:54:39.819Z,81.00
2022-11-29T18:57:07.802Z,75.10
2022-11-29T18:59:35.759Z,78.27
2022-11-29T19:02:03.738Z,81.03
2022-11-29T19:04:31.682Z,72.47
2022-11-29T19:06:59.701Z,74.07
2022-11-29T19:09:28.981Z,93.93
2022-11-29T19:11:56.955Z,78.10
2022-11-29T19:14:24.855Z,72.33
2022-11-29T19:16:52.862Z,71.97
2022-11-29T19:19:20.764Z,70.23
2022-11-29T19:21:49.191Z,82.23
2022-11-29T19:24:18.940Z,67.70
2022-11-29T19:26:50.698Z,89.83
2022-11-29T19:29:18.810Z,68.17
2022-11-29T19:31:46.776Z,70.70
2022-11-29T19:34:14.967Z,112.67
2022-11-29T19:36:44.517Z,73.73
2022-11-29T19:39:14.581Z,74.10
2022-11-29T19:41:44.229Z,69.03
2022-11-29T19:44:13.920Z,92.33
2022-11-29T19:46:43.311Z,78.93
2022-11-29T19:49:11.534Z,88.30
2022-11-29T19:51:39.717Z,81.03
2022-11-29T19:54:09.570Z,84.87
2022-11-29T19:56:38.966Z,67.47
2022-11-29T19:59:07.836Z,89.33
2022-11-29T20:01:41.426Z,114.70
2022-11-29T20:04:11.684Z,105.00
2022-11-29T20:06:39.927Z,77.33
2022-11-29T20:09:08.013Z,109.37
2022-11-29T20:11:36.033Z,75.40
2022-11-29T20:14:05.972Z,98.03
2022-11-29T20:16:34.803Z,84.03
2022-11-29T20:19:04.084Z,72.33
2022-11-29T20:21:33.819Z,92.83
2022-11-29T20:24:03.883Z,78.63
2022-11-29T20:26:33.848Z,77.13
2022-11-29T20:29:02.910Z,71.50
2022-11-29T20:31:33.441Z,69.03
2022-11-29T20:34:01.726Z,76.57
2022-11-29T20:36:41.496Z,71.80
2022-11-29T20:39:21.137Z,66.47
2022-11-29T20:42:00.487Z,66.63
2022-11-29T20:44:37.412Z,65.93
2022-11-29T20:47:14.927Z,70.70
2022-11-29T20:49:43.226Z,67.57
2022-11-29T20:52:25.409Z,72.53
2022-11-29T20:54:53.401Z,69.20
2022-11-29T20:57:21.392Z,71.33
2022-11-29T20:59:49.317Z,71.77
2022-11-29T21:02:17.220Z,73.83
2022-11-29T21:04:45.485Z,69.17
2022-11-29T21:07:15.090Z,68.93
2022-11-29T21:09:42.996Z,65.10
2022-11-29T21:12:12.080Z,65.13
2022-11-29T21:14:40.527Z,62.83
2022-11-29T21:17:09.952Z,63.50
2022-11-29T21:19:39.724Z,60.97
2022-11-29T21:22:16.457Z,65.07
2022-11-29T21:24:54.671Z,62.17
2022-11-29T21:27:28.365Z,62.10
2022-11-29T21:29:56.952Z,64.77
2022-11-29T21:32:26.861Z,65.33
2022-11-29T21:34:54.817Z,63.87
2022-11-29T21:37:26.472Z,64.07
2022-11-29T21:39:56.426Z,64.90
2022-11-29T21:42:24.723Z,64.10
2022-11-29T21:44:52.694Z,64.33
2022-11-29T21:47:20.573Z,64.70
2022-11-29T21:49:48.500Z,63.07
2022-11-29T21:52:20.829Z,66.20
2022-11-29T21:54:50.380Z,66.10
2022-11-29T21:57:19.899Z,63.63
2022-11-29T21:59:47.822Z,64.90
2022-11-29T22:02:15.899Z,67.03
2022-11-29T22:04:43.922Z,65.30
2022-11-29T22:07:11.914Z,64.20
2022-11-29T22:09:39.856Z,64.53
2022-11-29T22:12:31.815Z,63.67
2022-11-29T22:14:57.351Z,64.90
2022-11-29T22:17:25.234Z,61.77
2022-11-29T22:19:53.182Z,62.17
2022-11-29T22:22:21.081Z,63.13
2022-11-29T22:24:49.310Z,63.20
2022-11-29T22:27:18.560Z,62.27
2022-11-29T22:29:46.521Z,66.13
2022-11-29T22:32:16.465Z,65.47
2022-11-29T22:34:44.752Z,64.63
2022-11-29T22:37:13.392Z,67.10
2022-11-29T22:39:41.308Z,64.43
2022-11-29T22:42:09.200Z,68.57
2022-11-29T22:44:37.256Z,67.23
2022-11-29T22:47:05.269Z,66.60
2022-11-29T22:49:34.626Z,66.03
2022-11-29T22:52:02.526Z,65.50
2022-11-29T22:54:30.412Z,64.80
2022-11-29T22:56:58.435Z,63.33
2022-11-29T22:59:26.317Z,63.20
2022-11-29T23:01:54.273Z,62.33
2022-11-29T23:04:22.221Z,63.33
2022-11-29T23:06:51.528Z,63.23
2022-11-29T23:09:22.550Z,67.70
2022-11-29T23:11:54.279Z,67.80
2022-11-29T23:14:23.278Z,68.07
2022-11-29T23:16:51.684Z,69.77
2022-11-29T23:19:20.131Z,69.67
2022-11-29T23:21:48.502Z,68.97
2022-11-29T23:24:17.883Z,68.67
2022-11-29T23:26:47.488Z,70.10
2022-11-29T23:29:17.576Z,67.67
2022-11-29T23:31:46.724Z,68.63
2022-11-29T23:34:14.897Z,69.13
2022-11-29T23:36:45.730Z,67.17
2022-11-29T23:39:17.731Z,68.07
2022-11-29T23:41:45.738Z,66.33
2022-11-29T23:44:13.702Z,68.57
2022-11-29T23:46:41.646Z,69.10
2022-11-29T23:49:09.598Z,69.70
2022-11-29T23:51:37.604Z,71.27
2022-11-29T23:54:05.840Z,71.07
2022-11-29T23:56:35.652Z,67.30
2022-11-29T23:59:09.560Z,68.70
